createdAt,value
2018-02-17T00:00:58.400Z,-1.50
2018-02-17T00:03:26.697Z,-1.50
2018-02-17T00:05:55.745Z,-1.60
2018-02-17T00:08:24.086Z,-1.60
2018-02-17T00:10:53.119Z,-1.30
2018-02-17T00:13:22.216Z,-1.40
2018-02-17T00:15:50.486Z,-1.40
2018-02-17T00:18:19.637Z,-1.40
2018-02-17T00:20:47.981Z,-1.40
2018-02-17T00:23:16.249Z,-1.40
2018-02-17T00:25:45.359Z,-1.60
2018-02-17T00:28:13.630Z,-1.60
2018-02-17T00:30:42.778Z,-1.70
2018-02-17T00:33:11.047Z,-1.60
2018-02-17T00:35:40.102Z,-1.70
2018-02-17T00:38:08.504Z,-1.80
2018-02-17T00:40:36.786Z,-1.70
2018-02-17T00:43:05.137Z,-1.70
2018-02-17T00:45:33.453Z,-1.70
2018-02-17T00:48:01.766Z,-1.60
2018-02-17T00:50:30.071Z,-1.70
2018-02-17T00:52:59.100Z,-1.80
2018-02-17T00:55:27.386Z,-1.80
2018-02-17T00:57:55.961Z,-1.70
2018-02-17T01:00:24.252Z,-1.80
2018-02-17T01:02:52.552Z,-1.70
2018-02-17T01:05:20.819Z,-1.70
2018-02-17T01:07:49.194Z,-1.90
2018-02-17T01:10:17.463Z,-1.90
2018-02-17T01:12:45.840Z,-1.90
2018-02-17T01:15:14.104Z,-1.90
2018-02-17T01:17:42.466Z,-1.90
2018-02-17T01:20:10.774Z,-1.90
2018-02-17T01:22:39.058Z,-1.80
2018-02-17T01:25:07.408Z,-1.90
2018-02-17T01:27:35.739Z,-2.00
2018-02-17T01:30:04.023Z,-1.90
2018-02-17T01:32:32.435Z,-1.80
2018-02-17T01:35:00.715Z,-1.80
2018-02-17T01:37:29.030Z,-1.80
2018-02-17T01:39:57.335Z,-1.70
2018-02-17T01:42:25.629Z,-1.70
2018-02-17T01:44:54.740Z,-1.80
2018-02-17T01:47:23.760Z,-1.70
2018-02-17T01:49:52.121Z,-1.70
2018-02-17T01:52:20.401Z,-1.70
2018-02-17T01:54:48.685Z,-1.70
2018-02-17T01:57:16.987Z,-1.70
2018-02-17T01:59:45.262Z,-1.70
2018-02-17T02:02:13.633Z,-1.70
2018-02-17T02:04:42.749Z,-1.80
2018-02-17T02:07:11.029Z,-1.80
2018-02-17T02:09:39.356Z,-1.80
2018-02-17T02:12:07.773Z,-1.80
2018-02-17T02:14:36.081Z,-1.80
2018-02-17T02:17:05.129Z,-1.90
2018-02-17T02:19:33.475Z,-1.90
2018-02-17T02:22:01.752Z,-1.90
2018-02-17T02:24:30.058Z,-1.90
2018-02-17T02:26:58.376Z,-1.90
2018-02-17T02:29:26.788Z,-1.90
2018-02-17T02:31:55.852Z,-1.90
2018-02-17T02:34:24.893Z,-1.90
2018-02-17T02:36:53.234Z,-1.90
2018-02-17T02:39:21.542Z,-1.90
2018-02-17T02:41:49.808Z,-1.90
2018-02-17T02:44:18.157Z,-1.80
2018-02-17T02:46:46.469Z,-1.80
2018-02-17T02:49:14.851Z,-1.80
2018-02-17T02:51:43.208Z,-1.80
2018-02-17T02:54:12.234Z,-1.90
2018-02-17T02:56:40.537Z,-1.90
2018-02-17T02:59:08.828Z,-2.00
2018-02-17T03:01:37.177Z,-1.90
2018-02-17T03:04:05.526Z,-2.00
2018-02-17T03:06:34.555Z,-2.00
2018-02-17T03:09:02.894Z,-2.00
2018-02-17T03:11:32.002Z,-2.10
2018-02-17T03:14:00.347Z,-2.10
2018-02-17T03:16:28.750Z,-2.00
2018-02-17T03:18:57.072Z,-1.90
2018-02-17T03:21:25.336Z,-2.00
2018-02-17T03:23:53.729Z,-2.00
2018-02-17T03:26:21.988Z,-2.10
2018-02-17T03:28:50.271Z,-2.10
2018-02-17T03:31:18.576Z,-2.10
2018-02-17T03:33:46.864Z,-2.10
2018-02-17T03:36:15.183Z,-2.10
2018-02-17T03:38:43.466Z,-2.10
2018-02-17T03:41:11.839Z,-2.10
2018-02-17T03:43:40.142Z,-2.10
2018-02-17T03:46:08.441Z,-2.00
2018-02-17T03:48:37.050Z,-2.00
2018-02-17T03:51:06.091Z,-2.00
2018-02-17T03:53:34.398Z,-2.00
2018-02-17T03:56:02.805Z,-1.90
2018-02-17T03:58:31.119Z,-1.80
2018-02-17T04:00:59.459Z,-1.80
2018-02-17T04:03:27.722Z,-1.90
2018-02-17T04:05:56.810Z,-1.90
2018-02-17T04:08:25.912Z,-1.90
2018-02-17T04:10:54.307Z,-1.90
2018-02-17T04:13:22.570Z,-1.90
2018-02-17T04:15:51.682Z,-1.90
2018-02-17T04:18:19.953Z,-1.90
2018-02-17T04:20:48.277Z,-1.80
2018-02-17T04:23:16.551Z,-1.80
2018-02-17T04:25:44.892Z,-1.80
2018-02-17T04:28:13.152Z,-1.70
2018-02-17T04:30:41.413Z,-1.80
2018-02-17T04:33:10.534Z,-1.80
2018-02-17T04:35:38.831Z,-1.90
2018-02-17T04:38:07.140Z,-1.80
2018-02-17T04:44:04.389Z,-1.80
2018-02-17T04:46:37.374Z,-1.70
2018-02-17T04:49:10.511Z,-1.70
2018-02-17T04:51:57.350Z,-1.90
2018-02-17T04:54:31.838Z,-1.90
2018-02-17T04:57:08.849Z,-1.90
2018-02-17T04:59:46.065Z,-1.90
2018-02-17T05:02:19.969Z,-1.90
2018-02-17T05:04:50.953Z,-1.80
2018-02-17T05:10:24.152Z,-1.60
2018-02-17T05:12:52.501Z,-1.50
2018-02-17T05:15:20.773Z,-1.40
2018-02-17T05:17:54.756Z,-1.50
2018-02-17T05:20:38.816Z,-1.50
2018-02-17T05:23:23.842Z,-1.50
2018-02-17T05:25:53.203Z,-1.50
2018-02-17T05:28:25.977Z,-1.50
2018-02-17T05:31:09.960Z,-1.20
2018-02-17T05:33:53.118Z,-1.30
2018-02-17T05:36:25.690Z,-1.40
2018-02-17T05:39:06.492Z,-1.60
2018-02-17T05:41:40.543Z,-1.60
2018-02-17T05:44:08.896Z,-1.50
2018-02-17T05:46:37.331Z,-1.60
2018-02-17T05:49:20.212Z,-1.80
2018-02-17T05:51:48.489Z,-1.80
2018-02-17T05:54:16.813Z,-1.80
2018-02-17T05:56:45.078Z,-1.90
2018-02-17T05:59:14.104Z,-1.50
2018-02-17T06:01:42.485Z,-1.60
2018-02-17T06:04:10.759Z,-1.40
2018-02-17T06:06:39.095Z,-1.50
2018-02-17T06:09:07.461Z,-1.40
2018-02-17T06:11:36.544Z,-1.60
2018-02-17T06:14:04.924Z,-1.60
2018-02-17T06:16:33.199Z,-1.50
2018-02-17T06:19:01.585Z,-1.50
2018-02-17T06:21:30.726Z,-1.50
2018-02-17T06:23:59.117Z,-1.50
2018-02-17T06:26:27.408Z,-1.50
2018-02-17T06:28:55.772Z,-1.40
2018-02-17T06:31:24.042Z,-1.50
2018-02-17T06:33:52.351Z,-1.50
2018-02-17T06:36:20.844Z,-1.60
2018-02-17T06:38:49.120Z,-1.50
2018-02-17T06:41:17.445Z,-1.50
2018-02-17T06:43:45.724Z,-1.50
2018-02-17T06:46:14.051Z,-1.50
2018-02-17T06:48:42.415Z,-1.50
2018-02-17T06:51:10.745Z,-1.50
2018-02-17T06:53:39.141Z,-1.40
2018-02-17T06:56:07.418Z,-1.30
2018-02-17T06:58:35.688Z,-1.40
2018-02-17T07:01:04.003Z,-1.40
2018-02-17T07:03:33.223Z,-1.40
2018-02-17T07:06:02.310Z,-1.40
2018-02-17T07:08:31.357Z,-1.30
2018-02-17T07:10:59.768Z,-1.20
2018-02-17T07:13:28.166Z,-1.20
2018-02-17T07:15:57.224Z,-1.30
2018-02-17T07:18:26.445Z,-1.30
2018-02-17T07:20:54.799Z,-1.30
2018-02-17T07:23:23.847Z,-1.10
2018-02-17T07:25:53.745Z,-1.00
2018-02-17T07:28:22.033Z,-1.00
2018-02-17T07:30:50.326Z,-1.00
2018-02-17T07:33:18.737Z,-1.00
2018-02-17T07:35:47.139Z,-1.00
2018-02-17T07:38:15.438Z,-1.00
2018-02-17T07:40:44.525Z,-1.20
2018-02-17T07:43:12.796Z,-1.20
2018-02-17T07:45:41.199Z,-1.20
2018-02-17T07:48:10.228Z,-1.20
2018-02-17T07:50:38.517Z,-1.20
2018-02-17T07:53:07.677Z,-1.10
2018-02-17T07:55:35.983Z,-1.10
2018-02-17T07:58:04.326Z,-1.00
2018-02-17T08:00:32.610Z,-0.90
2018-02-17T08:03:01.064Z,-0.80
2018-02-17T08:05:29.328Z,-0.80
2018-02-17T08:07:57.694Z,-0.70
2018-02-17T08:10:25.985Z,-0.80
2018-02-17T08:12:54.288Z,-0.60
2018-02-17T08:15:22.888Z,-0.60
2018-02-17T08:17:51.194Z,-0.50
2018-02-17T08:20:20.317Z,-0.40
2018-02-17T08:22:48.586Z,-0.40
2018-02-17T08:25:16.866Z,-0.40
2018-02-17T08:27:45.302Z,-0.30
2018-02-17T08:30:14.358Z,-0.20
2018-02-17T08:32:43.455Z,-0.10
2018-02-17T08:35:12.494Z,0.10
2018-02-17T08:37:40.797Z,0.00
2018-02-17T08:40:09.061Z,0.00
2018-02-17T08:42:37.516Z,0.00
2018-02-17T08:45:05.808Z,0.00
2018-02-17T08:47:34.217Z,-0.10
2018-02-17T08:50:02.488Z,0.10
2018-02-17T08:52:30.863Z,0.20
2018-02-17T08:54:59.165Z,0.40
2018-02-17T08:57:27.510Z,0.40
2018-02-17T08:59:56.152Z,0.30
2018-02-17T09:02:24.903Z,0.50
2018-02-17T09:04:55.001Z,0.50
2018-02-17T09:07:23.853Z,0.40
2018-02-17T09:09:52.136Z,0.50
2018-02-17T09:12:20.769Z,0.50
2018-02-17T09:14:49.044Z,0.40
2018-02-17T09:17:17.317Z,0.40
2018-02-17T09:19:45.695Z,0.40
2018-02-17T09:22:13.957Z,0.60
2018-02-17T09:24:42.223Z,0.70
2018-02-17T09:27:10.577Z,0.60
2018-02-17T09:29:38.902Z,0.70
2018-02-17T09:32:07.266Z,0.70
2018-02-17T09:34:35.605Z,1.00
2018-02-17T09:37:03.866Z,1.00
2018-02-17T09:39:32.967Z,1.00
2018-02-17T09:42:02.017Z,1.10
2018-02-17T09:44:30.372Z,1.10
2018-02-17T09:46:59.481Z,0.90
2018-02-17T09:49:27.746Z,0.90
2018-02-17T09:51:56.227Z,0.80
2018-02-17T09:54:24.712Z,1.00
2018-02-17T09:56:53.039Z,0.90
2018-02-17T09:59:22.148Z,1.00
2018-02-17T10:01:51.310Z,1.00
2018-02-17T10:04:19.651Z,1.00
2018-02-17T10:06:47.900Z,0.90
2018-02-17T10:09:16.915Z,1.00
2018-02-17T10:11:45.276Z,1.00
2018-02-17T10:14:14.355Z,1.20
2018-02-17T10:16:43.509Z,1.20
2018-02-17T10:19:11.890Z,1.20
2018-02-17T10:21:40.335Z,1.20
2018-02-17T10:24:08.749Z,1.20
2018-02-17T10:26:37.116Z,1.30
2018-02-17T10:29:05.437Z,1.20
2018-02-17T10:31:33.693Z,1.10
2018-02-17T10:34:02.977Z,1.10
2018-02-17T10:36:31.622Z,1.30
2018-02-17T10:39:00.733Z,1.60
2018-02-17T10:41:29.002Z,1.60
2018-02-17T10:43:57.266Z,1.80
2018-02-17T10:46:27.614Z,1.70
2018-02-17T10:48:55.946Z,1.80
2018-02-17T10:51:24.495Z,1.80
2018-02-17T10:53:52.757Z,1.90
2018-02-17T10:56:21.719Z,1.80
2018-02-17T10:58:50.274Z,2.00
2018-02-17T11:01:18.815Z,1.90
2018-02-17T11:03:47.120Z,1.90
2018-02-17T11:06:15.430Z,2.10
2018-02-17T11:08:43.673Z,2.10
2018-02-17T11:11:12.062Z,2.20
2018-02-17T11:13:40.338Z,2.30
2018-02-17T11:16:08.673Z,2.20
2018-02-17T11:18:36.969Z,2.20
2018-02-17T11:21:05.241Z,2.30
2018-02-17T11:23:33.617Z,2.60
2018-02-17T11:26:01.888Z,2.90
2018-02-17T11:28:31.046Z,2.80
2018-02-17T11:31:00.121Z,2.70
2018-02-17T11:33:28.395Z,2.70
2018-02-17T11:35:56.688Z,2.50
2018-02-17T11:38:27.132Z,2.50
2018-02-17T11:40:56.163Z,2.50
2018-02-17T11:43:24.506Z,2.50
2018-02-17T11:45:52.819Z,2.90
2018-02-17T11:48:21.179Z,2.90
2018-02-17T11:50:49.505Z,3.10
2018-02-17T11:53:17.778Z,3.10
2018-02-17T11:55:46.233Z,3.40
2018-02-17T11:58:14.505Z,3.00
2018-02-17T12:00:42.802Z,3.30
2018-02-17T12:03:11.090Z,3.30
2018-02-17T12:05:40.313Z,3.20
2018-02-17T12:08:09.356Z,3.10
2018-02-17T12:10:37.651Z,3.00
2018-02-17T12:13:06.022Z,3.20
2018-02-17T12:15:34.285Z,3.30
2018-02-17T12:18:03.721Z,3.20
2018-02-17T12:20:31.975Z,3.40
2018-02-17T12:23:00.243Z,3.60
2018-02-17T12:25:29.382Z,3.60
2018-02-17T12:27:58.508Z,3.40
2018-02-17T12:30:26.764Z,3.40
2018-02-17T12:32:55.924Z,3.40
2018-02-17T12:35:24.235Z,3.30
2018-02-17T12:37:53.844Z,3.40
2018-02-17T12:40:22.938Z,3.50
2018-02-17T12:42:51.969Z,3.70
2018-02-17T12:45:21.300Z,3.70
2018-02-17T12:47:49.625Z,3.80
2018-02-17T12:50:17.970Z,3.80
2018-02-17T12:52:48.011Z,3.90
2018-02-17T12:55:17.674Z,4.10
2018-02-17T12:57:46.714Z,4.00
2018-02-17T13:00:15.777Z,4.00
2018-02-17T13:02:44.078Z,4.00
2018-02-17T13:05:13.145Z,4.20
2018-02-17T13:07:41.524Z,4.20
2018-02-17T13:10:09.852Z,4.20
2018-02-17T13:12:38.196Z,4.40
2018-02-17T13:15:06.584Z,4.50
2018-02-17T13:17:35.632Z,4.00
2018-02-17T13:20:03.906Z,4.00
2018-02-17T13:22:32.267Z,4.30
2018-02-17T13:25:00.672Z,4.60
2018-02-17T13:27:28.938Z,4.20
2018-02-17T13:29:57.235Z,4.10
2018-02-17T13:32:25.619Z,4.20
2018-02-17T13:34:53.972Z,4.10
2018-02-17T13:37:22.332Z,4.20
2018-02-17T13:39:51.631Z,4.20
2018-02-17T13:42:20.602Z,4.40
2018-02-17T13:44:48.925Z,4.20
2018-02-17T13:47:17.190Z,4.10
2018-02-17T13:49:45.478Z,4.30
2018-02-17T13:52:13.852Z,4.40
2018-02-17T13:54:42.140Z,4.10
2018-02-17T13:57:11.292Z,4.10
2018-02-17T13:59:40.166Z,4.10
2018-02-17T14:02:09.316Z,4.30
2018-02-17T14:04:37.617Z,4.40
2018-02-17T14:07:06.020Z,4.30
2018-02-17T14:09:35.034Z,4.30
2018-02-17T14:12:03.404Z,4.30
2018-02-17T14:14:31.696Z,4.10
2018-02-17T14:17:01.003Z,4.20
2018-02-17T14:19:29.277Z,4.10
2018-02-17T14:21:58.411Z,4.20
2018-02-17T14:24:26.781Z,4.30
2018-02-17T14:26:55.041Z,4.20
2018-02-17T14:29:24.160Z,4.20
2018-02-17T14:31:52.444Z,4.20
2018-02-17T14:34:20.825Z,4.30
2018-02-17T14:36:49.156Z,4.30
2018-02-17T14:39:17.584Z,4.50
2018-02-17T14:41:45.844Z,4.50
2018-02-17T14:44:14.767Z,4.50
2018-02-17T14:46:43.802Z,4.50
2018-02-17T14:49:12.075Z,4.50
2018-02-17T14:51:40.597Z,4.40
2018-02-17T14:54:08.893Z,4.30
2018-02-17T14:56:38.050Z,4.60
2018-02-17T14:59:06.315Z,4.70
2018-02-17T15:01:34.974Z,4.70
2018-02-17T15:04:03.305Z,4.60
2018-02-17T15:06:31.766Z,4.60
2018-02-17T15:09:00.026Z,4.60
2018-02-17T15:11:28.385Z,4.50
2018-02-17T15:13:56.642Z,4.20
2018-02-17T15:16:24.945Z,4.30
2018-02-17T15:18:53.273Z,4.10
2018-02-17T15:21:21.525Z,4.10
2018-02-17T15:23:49.850Z,4.10
2018-02-17T15:26:18.892Z,4.10
2018-02-17T15:28:47.262Z,4.10
2018-02-17T15:31:15.659Z,4.10
2018-02-17T15:33:43.976Z,4.10
2018-02-17T15:36:13.072Z,4.10
2018-02-17T15:38:42.130Z,4.10
2018-02-17T15:41:10.448Z,4.00
2018-02-17T15:43:39.480Z,3.90
2018-02-17T15:46:07.840Z,4.00
2018-02-17T15:48:36.260Z,4.00
2018-02-17T15:51:04.572Z,3.90
2018-02-17T15:53:35.665Z,3.90
2018-02-17T15:56:04.003Z,3.80
2018-02-17T15:58:32.281Z,3.90
2018-02-17T16:01:01.308Z,3.70
2018-02-17T16:03:29.716Z,3.70
2018-02-17T16:05:57.986Z,3.70
2018-02-17T16:08:26.360Z,3.60
2018-02-17T16:10:54.900Z,3.50
2018-02-17T16:13:23.161Z,3.50
2018-02-17T16:15:52.218Z,3.40
2018-02-17T16:18:20.557Z,3.50
2018-02-17T16:20:48.864Z,3.50
2018-02-17T16:23:17.182Z,3.50
2018-02-17T16:25:46.343Z,3.50
2018-02-17T16:28:14.605Z,3.50
2018-02-17T16:30:42.887Z,3.40
2018-02-17T16:33:11.254Z,3.40
2018-02-17T16:35:39.511Z,3.40
2018-02-17T16:38:07.814Z,3.40
2018-02-17T16:40:36.157Z,3.20
2018-02-17T16:43:04.520Z,3.10
2018-02-17T16:45:33.666Z,3.20
2018-02-17T16:48:01.930Z,3.20
2018-02-17T16:50:30.190Z,3.10
2018-02-17T16:52:58.526Z,3.00
2018-02-17T16:55:27.086Z,3.00
2018-02-17T16:57:55.398Z,2.80
2018-02-17T17:00:23.710Z,2.80
2018-02-17T17:02:52.010Z,2.80
2018-02-17T17:05:20.261Z,2.80
2018-02-17T17:07:48.578Z,2.80
2018-02-17T17:10:18.433Z,2.60
2018-02-17T17:12:47.471Z,2.70
2018-02-17T17:15:15.812Z,2.60
2018-02-17T17:17:44.842Z,2.70
2018-02-17T17:20:13.124Z,2.70
2018-02-17T17:22:41.463Z,2.60
2018-02-17T17:25:09.731Z,2.50
2018-02-17T17:27:38.110Z,2.50
2018-02-17T17:30:08.274Z,2.50
2018-02-17T17:32:37.877Z,2.40
2018-02-17T17:35:06.807Z,2.40
2018-02-17T17:37:35.920Z,2.30
2018-02-17T17:40:04.313Z,2.30
2018-02-17T17:42:32.620Z,2.20
2018-02-17T17:45:02.770Z,2.30
2018-02-17T17:47:31.036Z,2.30
2018-02-17T17:49:59.418Z,2.20
2018-02-17T17:52:27.695Z,2.30
2018-02-17T17:54:55.988Z,2.20
2018-02-17T17:57:25.104Z,2.10
2018-02-17T17:59:54.999Z,2.00
2018-02-17T18:02:23.266Z,2.00
2018-02-17T18:04:51.574Z,1.90
2018-02-17T18:07:19.901Z,2.00
2018-02-17T18:09:48.141Z,1.90
2018-02-17T18:12:16.473Z,1.80
2018-02-17T18:14:44.750Z,1.80
2018-02-17T18:17:13.117Z,1.60
2018-02-17T18:19:41.394Z,1.60
2018-02-17T18:22:09.719Z,1.60
2018-02-17T18:24:38.032Z,1.50
2018-02-17T18:27:06.317Z,1.50
2018-02-17T18:29:34.611Z,1.40
2018-02-17T18:32:02.924Z,1.40
2018-02-17T18:34:31.183Z,1.50
2018-02-17T18:37:00.297Z,1.40
2018-02-17T18:39:28.560Z,1.30
2018-02-17T18:41:57.669Z,1.30
2018-02-17T18:44:26.031Z,1.20
2018-02-17T18:46:55.050Z,1.20
2018-02-17T18:49:25.273Z,1.20
2018-02-17T18:51:54.125Z,1.10
2018-02-17T18:54:23.252Z,0.90
2018-02-17T18:56:51.549Z,0.90
2018-02-17T18:59:19.863Z,0.90
2018-02-17T19:01:48.788Z,0.90
2018-02-17T19:04:17.103Z,0.90
2018-02-17T19:06:45.461Z,0.80
2018-02-17T19:09:13.751Z,0.70
2018-02-17T19:11:42.111Z,0.80
2018-02-17T19:14:10.369Z,0.70
2018-02-17T19:16:39.382Z,0.60
2018-02-17T19:19:07.681Z,0.60
2018-02-17T19:21:36.038Z,0.50
2018-02-17T19:24:04.354Z,0.50
2018-02-17T19:26:32.672Z,0.60
2018-02-17T19:29:00.989Z,0.50
2018-02-17T19:31:29.254Z,0.50
2018-02-17T19:33:57.855Z,0.40
2018-02-17T19:36:26.116Z,0.40
2018-02-17T19:38:54.420Z,0.40
2018-02-17T19:41:22.694Z,0.40
2018-02-17T19:43:51.040Z,0.30
2018-02-17T19:46:19.319Z,0.50
2018-02-17T19:48:47.592Z,0.40
2018-02-17T19:51:15.923Z,0.40
2018-02-17T19:53:44.968Z,0.40
2018-02-17T19:56:13.274Z,0.30
2018-02-17T19:58:41.586Z,0.40
2018-02-17T20:01:10.619Z,0.30
2018-02-17T20:03:38.941Z,0.30
2018-02-17T20:06:07.204Z,0.30
2018-02-17T20:08:35.664Z,0.30
2018-02-17T20:11:03.946Z,0.20
2018-02-17T20:13:32.260Z,0.30
2018-02-17T20:16:01.337Z,0.50
2018-02-17T20:18:29.599Z,0.40
2018-02-17T20:20:57.889Z,0.40
2018-02-17T20:23:26.279Z,0.40
2018-02-17T20:25:54.625Z,0.20
2018-02-17T20:28:22.910Z,0.20
2018-02-17T20:30:51.263Z,0.10
2018-02-17T20:33:19.528Z,0.00
2018-02-17T20:35:47.856Z,0.00
2018-02-17T20:38:16.156Z,0.00
2018-02-17T20:40:45.264Z,-0.10
2018-02-17T20:43:13.678Z,-0.20
2018-02-17T20:45:41.939Z,-0.20
2018-02-17T20:48:10.245Z,-0.20
2018-02-17T20:50:38.520Z,-0.10
2018-02-17T20:53:06.888Z,-0.10
2018-02-17T20:55:35.193Z,-0.10
2018-02-17T20:58:04.259Z,-0.20
2018-02-17T21:00:32.676Z,-0.20
2018-02-17T21:03:01.764Z,-0.30
2018-02-17T21:05:30.059Z,-0.30
2018-02-17T21:07:59.206Z,-0.20
2018-02-17T21:10:27.482Z,-0.20
2018-02-17T21:12:56.522Z,-0.20
2018-02-17T21:15:25.630Z,-0.30
2018-02-17T21:17:53.910Z,-0.30
2018-02-17T21:20:22.225Z,-0.30
2018-02-17T21:22:50.664Z,-0.40
2018-02-17T21:25:18.939Z,-0.40
2018-02-17T21:27:47.226Z,-0.60
2018-02-17T21:30:15.635Z,-0.70
2018-02-17T21:32:43.948Z,-0.80
2018-02-17T21:35:12.994Z,-0.70
2018-02-17T21:37:41.317Z,-0.70
2018-02-17T21:40:09.572Z,-0.80
2018-02-17T21:42:37.921Z,-0.70
2018-02-17T21:45:06.193Z,-0.90
2018-02-17T21:47:34.472Z,-0.80
2018-02-17T21:50:02.880Z,-0.80
2018-02-17T21:52:31.144Z,-0.80
2018-02-17T21:54:59.479Z,-0.80
2018-02-17T21:57:27.743Z,-0.80
2018-02-17T21:59:56.818Z,-0.90
2018-02-17T22:02:25.172Z,-0.90
2018-02-17T22:04:53.458Z,-0.90
2018-02-17T22:07:21.837Z,-0.90
2018-02-17T22:09:50.480Z,-0.90
2018-02-17T22:12:18.750Z,-0.80
2018-02-17T22:14:47.090Z,-1.00
2018-02-17T22:17:15.559Z,-1.20
2018-02-17T22:19:43.819Z,-1.20
2018-02-17T22:22:12.130Z,-1.10
2018-02-17T22:24:41.169Z,-1.30
2018-02-17T22:27:09.514Z,-1.40
2018-02-17T22:29:38.573Z,-1.30
2018-02-17T22:32:06.908Z,-1.20
2018-02-17T22:34:35.250Z,-1.40
2018-02-17T22:37:03.527Z,-1.50
2018-02-17T22:39:31.917Z,-1.50
2018-02-17T22:42:00.959Z,-1.50
2018-02-17T22:44:29.317Z,-1.50
2018-02-17T22:46:57.729Z,-1.50
2018-02-17T22:49:26.230Z,-1.60
2018-02-17T22:51:54.489Z,-1.70
2018-02-17T22:54:22.848Z,-1.60
2018-02-17T22:56:51.159Z,-1.60
2018-02-17T22:59:19.483Z,-1.50
2018-02-17T23:01:47.850Z,-1.40
2018-02-17T23:04:17.009Z,-1.00
2018-02-17T23:06:45.369Z,-1.10
2018-02-17T23:09:13.725Z,-1.10
2018-02-17T23:11:42.152Z,-1.10
2018-02-17T23:14:10.465Z,-1.10
2018-02-17T23:16:38.729Z,-1.00
2018-02-17T23:19:07.849Z,-1.00
2018-02-17T23:21:36.234Z,-1.00
2018-02-17T23:24:04.507Z,-0.90
2018-02-17T23:26:32.821Z,-0.90
2018-02-17T23:29:01.298Z,-0.90
2018-02-17T23:31:29.650Z,-1.10
2018-02-17T23:33:57.924Z,-1.30
2018-02-17T23:36:26.312Z,-1.50
2018-02-17T23:38:55.368Z,-1.60
2018-02-17T23:41:23.671Z,-1.60
2018-02-17T23:43:51.978Z,-1.50
2018-02-17T23:46:20.352Z,-1.50
2018-02-17T23:48:48.696Z,-1.30
2018-02-17T23:51:17.079Z,-1.20
2018-02-17T23:53:45.369Z,-1.20
2018-02-17T23:56:13.777Z,-1.50
2018-02-17T23:58:42.184Z,-1.70
